Time;durP1;ratioP1;P1;durP2;ratioP2;P2;SDS_P1;SDS_P2;PMS_P1;PMS_P2;Temp;Humidity;BMP_temperature;BMP_pressure;BME280_temperature;BME280_humidity;BME280_pressure;Samples;Min_cycle;Max_cycle;Signal;HPM_P1;HPM_P2
2022/09/19 00:01:10;;;;;;;;;;;;;;;21.71;56.43;102081.50;7282788;19;152243;-58
2022/09/19 00:03:42;;;;;;;;;;;;;;;21.71;56.26;102092.75;7282556;19;153331;-58
2022/09/19 00:06:11;;;;;;;;;;;;;;;21.71;56.67;102089.13;7291930;19;153038;-58
2022/09/19 00:08:40;;;;;;;;;;;;;;;21.71;56.44;102086.31;7283053;19;153781;-58
2022/09/19 00:11:09;;;;;;;;;;;;;;;21.69;56.80;102083.78;7282437;19;154612;-58
2022/09/19 00:13:37;;;;;;;;;;;;;;;21.70;57.08;102084.63;7283789;19;153088;-58
2022/09/19 00:16:05;;;;;;;;;;;;;;;21.69;57.00;102095.03;7280797;19;153374;-58
2022/09/19 00:18:33;;;;;;;;;;;;;;;21.68;57.14;102090.53;7283150;19;152451;-58
2022/09/19 00:21:00;;;;;;;;;;;;;;;21.66;57.20;102095.63;7283112;19;152748;-58
2022/09/19 00:26:24;;;;;;;;;;;;;;;21.66;57.09;102090.00;7282127;19;154044;-58
2022/09/19 00:28:51;;;;;;;;;;;;;;;21.61;57.45;102100.41;7290477;19;152684;-58
2022/09/19 00:31:19;;;;;;;;;;;;;;;21.61;57.69;102092.81;7279983;19;152748;-58
2022/09/19 00:33:47;;;;;;;;;;;;;;;21.62;57.50;102096.50;7282623;19;152908;-58
2022/09/19 00:36:15;;;;;;;;;;;;;;;21.61;58.08;102100.41;7282238;19;153310;-58
2022/09/19 00:38:42;;;;;;;;;;;;;;;21.61;58.23;102100.41;7279917;19;152682;-58
2022/09/19 00:41:13;;;;;;;;;;;;;;;21.63;58.24;102096.19;7282712;19;152322;-58
2022/09/19 00:44:03;;;;;;;;;;;;;;;21.59;58.48;102095.06;7278672;19;152891;-59
2022/09/19 00:46:32;;;;;;;;;;;;;;;21.62;58.96;102108.53;7282284;19;152154;-59
2022/09/19 00:49:01;;;;;;;;;;;;;;;21.62;58.53;102111.38;7282377;19;152156;-59
2022/09/19 00:51:31;;;;;;;;;;;;;;;21.62;58.69;102100.09;7286316;19;154082;-58
2022/09/19 00:54:00;;;;;;;;;;;;;;;21.60;58.60;102102.38;7283772;19;152284;-59
2022/09/19 00:56:28;;;;;;;;;;;;;;;21.59;58.80;102097.03;7282147;19;153270;-58
2022/09/19 00:58:56;;;;;;;;;;;;;;;21.55;58.81;102099.59;7282389;19;152504;-59
2022/09/19 01:01:24;;;;;;;;;;;;;;;21.60;58.66;102095.91;7281359;19;153804;-58
2022/09/19 01:03:53;;;;;;;;;;;;;;;21.58;58.67;102095.34;7280932;19;153928;-58
2022/09/19 01:06:39;;;;;;;;;;;;;;;21.56;58.88;102094.81;7282689;19;151754;-58
2022/09/19 01:09:15;;;;;;;;;;;;;;;21.55;58.71;102099.59;7282612;19;154055;-58
2022/09/19 01:11:56;;;;;;;;;;;;;;;21.55;58.41;102093.97;7279691;19;153941;-58
2022/09/19 01:14:46;;;;;;;;;;;;;;;21.57;58.45;102097.34;7289217;19;151951;-58
2022/09/19 01:17:20;;;;;;;;;;;;;;;21.54;58.94;102097.06;7275819;19;153477;-58
2022/09/19 01:20:07;;;;;;;;;;;;;;;21.54;58.53;102095.09;7280083;19;152440;-58
2022/09/19 01:22:43;;;;;;;;;;;;;;;21.49;58.60;102089.47;7282498;19;153946;-58
2022/09/19 01:25:32;;;;;;;;;;;;;;;21.48;58.64;102101.03;7279562;19;154165;-57
2022/09/19 01:28:01;;;;;;;;;;;;;;;21.44;58.87;102097.94;7279837;19;151913;-58
2022/09/19 01:30:29;;;;;;;;;;;;;;;21.42;58.96;102103.03;7282034;19;152520;-58
2022/09/19 01:32:59;;;;;;;;;;;;;;;21.43;58.68;102101.91;7278325;19;152432;-58
2022/09/19 01:35:28;;;;;;;;;;;;;;;21.45;59.04;102099.63;7283112;19;152228;-58
2022/09/19 01:38:08;;;;;;;;;;;;;;;21.43;59.04;102107.53;7286850;19;153868;-58
2022/09/19 01:40:37;;;;;;;;;;;;;;;21.41;58.64;102106.94;7281358;19;152248;-58
2022/09/19 01:43:11;;;;;;;;;;;;;;;21.38;59.23;102107.53;7279731;19;152886;-58
2022/09/19 01:45:39;;;;;;;;;;;;;;;21.35;59.20;102105.28;7279272;19;153025;-58
2022/09/19 01:48:10;;;;;;;;;;;;;;;21.33;59.29;102107.53;7280357;19;152257;-58
2022/09/19 01:50:45;;;;;;;;;;;;;;;21.32;59.12;102111.47;7287473;19;152739;-58
2022/09/19 01:53:30;;;;;;;;;;;;;;;21.32;59.32;102103.03;7286678;19;153144;-58
2022/09/19 01:56:28;;;;;;;;;;;;;;;21.30;59.48;102102.50;7288529;19;151713;-58
2022/09/19 01:59:14;;;;;;;;;;;;;;;21.32;59.24;102105.00;7284847;19;152513;-58
2022/09/19 02:01:47;;;;;;;;;;;;;;;21.30;59.16;102103.31;7293819;19;153458;-58
2022/09/19 02:04:21;;;;;;;;;;;;;;;21.28;59.67;102104.75;7286483;19;152401;-58
2022/09/19 02:06:59;;;;;;;;;;;;;;;21.27;59.54;102105.88;7286603;19;152367;-58
2022/09/19 02:09:48;;;;;;;;;;;;;;;21.26;59.91;102104.19;7286810;19;151661;-58
2022/09/19 02:12:17;;;;;;;;;;;;;;;21.27;59.72;102103.06;7286597;19;153010;-58
2022/09/19 02:14:50;;;;;;;;;;;;;;;21.23;59.62;102097.16;7286438;19;153695;-58
2022/09/19 02:17:23;;;;;;;;;;;;;;;21.24;59.70;102103.63;7287497;19;151974;-58
2022/09/19 02:20:10;;;;;;;;;;;;;;;21.26;59.90;102101.38;7286574;19;152596;-58
2022/09/19 02:22:45;;;;;;;;;;;;;;;21.27;59.53;102103.06;7294058;19;152683;-58
2022/09/19 02:25:14;;;;;;;;;;;;;;;21.30;59.72;102108.13;7287199;19;153548;-58
2022/09/19 02:27:50;;;;;;;;;;;;;;;21.30;59.96;102106.13;7286534;19;153364;-58
2022/09/19 02:30:20;;;;;;;;;;;;;;;21.29;59.79;102104.47;7286083;19;152151;-58
2022/09/19 02:32:49;;;;;;;;;;;;;;;21.28;60.04;102105.59;7283057;19;151912;-58
2022/09/19 02:35:21;;;;;;;;;;;;;;;21.29;59.68;102107.28;7286537;19;152499;-58
2022/09/19 02:37:55;;;;;;;;;;;;;;;21.29;59.79;102107.28;7286450;19;152579;-58
2022/09/19 02:40:22;;;;;;;;;;;;;;;21.29;59.79;102106.44;7287170;19;152261;-58
2022/09/19 02:42:56;;;;;;;;;;;;;;;21.28;59.58;102102.78;7283640;19;153493;-58
2022/09/19 02:45:32;;;;;;;;;;;;;;;21.28;60.01;102096.31;7294741;19;151977;-58
2022/09/19 02:48:03;;;;;;;;;;;;;;;21.28;59.82;102096.31;7283880;19;154115;-58
2022/09/19 02:50:49;;;;;;;;;;;;;;;21.27;60.17;102100.25;7287336;19;152036;-58
2022/09/19 02:53:19;;;;;;;;;;;;;;;21.27;59.82;102097.44;7285200;19;152820;-58
2022/09/19 02:55:58;;;;;;;;;;;;;;;21.26;60.06;102096.59;7284965;19;152362;-58
2022/09/19 02:58:27;;;;;;;;;;;;;;;21.26;59.98;102093.78;7285345;19;152373;-58
2022/09/19 03:00:56;;;;;;;;;;;;;;;21.27;59.67;102097.44;7282413;19;152814;-58
2022/09/19 03:06:24;;;;;;;;;;;;;;;21.23;59.61;102094.34;7285163;19;155022;-58
2022/09/19 03:08:53;;;;;;;;;;;;;;;21.24;59.37;102087.63;7289808;19;152122;-59
2022/09/19 03:11:23;;;;;;;;;;;;;;;21.23;59.92;102091.53;7284145;19;152573;-59
2022/09/19 03:13:51;;;;;;;;;;;;;;;21.23;59.59;102093.50;7286219;19;152174;-59
2022/09/19 03:16:21;;;;;;;;;;;;;;;21.24;59.42;102096.06;7284235;19;153243;-59
2022/09/19 03:18:56;;;;;;;;;;;;;;;21.24;59.75;102098.84;7284371;19;152468;-59
2022/09/19 03:21:32;;;;;;;;;;;;;;;21.21;59.58;102093.78;7285548;19;153509;-59
2022/09/19 03:23:59;;;;;;;;;;;;;;;21.23;59.69;102099.13;7283662;19;153053;-59
2022/09/19 03:26:32;;;;;;;;;;;;;;;21.22;59.97;102105.88;7285648;19;152469;-59
2022/09/19 03:29:12;;;;;;;;;;;;;;;21.22;59.61;102106.72;7285586;19;152387;-59
2022/09/19 03:31:39;;;;;;;;;;;;;;;21.22;59.70;102105.88;7289883;19;152597;-59
2022/09/19 03:34:06;;;;;;;;;;;;;;;21.20;60.18;102105.34;7284461;19;154083;-59
2022/09/19 03:36:33;;;;;;;;;;;;;;;21.20;60.17;102105.34;7284727;19;152444;-59
2022/09/19 03:39:04;;;;;;;;;;;;;;;21.21;60.11;102104.22;7284773;19;152456;-58
2022/09/19 03:41:31;;;;;;;;;;;;;;;21.19;59.91;102109.25;7285597;19;152997;-58
2022/09/19 03:44:02;;;;;;;;;;;;;;;21.16;60.09;102107.88;7279585;19;153297;-59
2022/09/19 03:46:33;;;;;;;;;;;;;;;21.16;59.94;102112.66;7284390;19;152054;-59
2022/09/19 03:49:04;;;;;;;;;;;;;;;21.14;60.00;102112.09;7284202;19;152281;-59
2022/09/19 03:51:32;;;;;;;;;;;;;;;21.14;60.09;102109.28;7281616;19;154395;-58
2022/09/19 03:53:59;;;;;;;;;;;;;;;21.13;60.41;102110.41;7292476;19;152295;-58
2022/09/19 03:56:26;;;;;;;;;;;;;;;21.12;60.23;102117.13;7283280;19;152339;-58
2022/09/19 03:58:54;;;;;;;;;;;;;;;21.11;60.29;102113.47;7284558;19;152715;-59
2022/09/19 04:01:35;;;;;;;;;;;;;;;21.11;60.28;102119.09;7281927;19;152302;-58
2022/09/19 04:04:02;;;;;;;;;;;;;;;21.09;60.22;102115.72;7281620;19;152649;-59
2022/09/19 04:06:29;;;;;;;;;;;;;;;21.09;60.29;102121.34;7285395;19;151926;-59
2022/09/19 04:09:03;;;;;;;;;;;;;;;21.07;60.82;102126.41;7284519;19;153045;-59
2022/09/19 04:11:34;;;;;;;;;;;;;;;21.08;60.58;102122.47;7282993;19;153134;-58
2022/09/19 04:14:02;;;;;;;;;;;;;;;21.08;60.36;102124.41;7283959;19;152437;-59
2022/09/19 04:16:30;;;;;;;;;;;;;;;21.06;60.48;102130.34;7290481;19;152280;-58
2022/09/19 04:19:09;;;;;;;;;;;;;;;21.08;60.92;102136.50;7283658;19;154174;-58
2022/09/19 04:21:38;;;;;;;;;;;;;;;21.09;61.06;102131.72;7284483;19;152627;-58
2022/09/19 04:24:04;;;;;;;;;;;;;;;21.08;60.74;102124.41;7282063;19;152800;-58
2022/09/19 04:26:31;;;;;;;;;;;;;;;21.08;60.91;102128.06;7284071;19;151823;-58
2022/09/19 04:29:10;;;;;;;;;;;;;;;21.06;60.72;102127.53;7283026;19;152092;-58
2022/09/19 04:31:41;;;;;;;;;;;;;;;21.06;61.33;102127.53;7282073;19;153748;-58
2022/09/19 04:34:13;;;;;;;;;;;;;;;21.05;61.26;102139.03;7282862;19;152682;-58
2022/09/19 04:36:43;;;;;;;;;;;;;;;21.03;60.93;102133.69;7288393;19;153357;-58
2022/09/19 04:39:10;;;;;;;;;;;;;;;21.03;61.09;102141.31;7283386;19;151807;-58
2022/09/19 04:41:38;;;;;;;;;;;;;;;21.02;61.29;102140.47;7284300;19;153562;-58
2022/09/19 04:44:06;;;;;;;;;;;;;;;21.02;61.37;102146.09;7276003;19;153352;-58
2022/09/19 04:46:33;;;;;;;;;;;;;;;21.03;61.13;102144.94;7282508;19;152483;-59
2022/09/19 04:49:09;;;;;;;;;;;;;;;21.03;60.79;102152.56;7281754;19;152610;-59
2022/09/19 04:51:38;;;;;;;;;;;;;;;21.03;60.81;102144.94;7281541;19;152725;-58
2022/09/19 04:54:06;;;;;;;;;;;;;;;21.04;60.92;102148.59;7282197;19;153332;-59
2022/09/19 04:56:33;;;;;;;;;;;;;;;21.03;60.94;102149.75;7284367;19;153443;-59
2022/09/19 04:59:10;;;;;;;;;;;;;;;21.01;60.76;102149.16;7287416;19;154491;-59
2022/09/19 05:01:38;;;;;;;;;;;;;;;21.01;61.16;102146.34;7277776;19;152362;-59
2022/09/19 05:04:05;;;;;;;;;;;;;;;21.00;60.93;102147.47;7281116;19;154158;-59
2022/09/19 05:06:32;;;;;;;;;;;;;;;21.03;61.03;102149.75;7283354;19;151547;-59
2022/09/19 05:09:01;;;;;;;;;;;;;;;21.04;61.87;102145.78;7282498;19;152851;-59
2022/09/19 05:11:29;;;;;;;;;;;;;;;21.05;61.96;102139.03;7281444;19;153306;-58
2022/09/19 05:13:56;;;;;;;;;;;;;;;21.07;62.02;102148.91;7282567;19;153154;-58
2022/09/19 05:16:23;;;;;;;;;;;;;;;21.07;62.01;102150.88;7280939;19;152728;-58
2022/09/19 05:18:50;;;;;;;;;;;;;;;21.10;61.60;102144.66;7280453;19;153582;-59
2022/09/19 05:21:25;;;;;;;;;;;;;;;21.13;62.28;102153.41;7289791;19;151830;-58
2022/09/19 05:23:52;;;;;;;;;;;;;;;21.17;62.99;102154.50;7282567;19;153668;-58
2022/09/19 05:26:19;;;;;;;;;;;;;;;21.22;62.95;102153.66;7289340;19;151977;-58
2022/09/19 05:28:46;;;;;;;;;;;;;;;21.27;63.19;102156.47;7288619;19;153692;-59
2022/09/19 05:31:35;;;;;;;;;;;;;;;21.32;63.14;102150.84;7286083;19;154105;-58
2022/09/19 05:34:04;;;;;;;;;;;;;;;21.37;62.86;102153.63;7287449;19;151995;-58
2022/09/19 05:36:31;;;;;;;;;;;;;;;21.43;62.60;102154.47;7289080;19;152158;-58
2022/09/19 05:39:01;;;;;;;;;;;;;;;21.47;62.45;102156.44;7286663;19;153475;-57
2022/09/19 05:41:29;;;;;;;;;;;;;;;21.52;62.74;102153.59;7288932;19;152969;-58
2022/09/19 05:43:56;;;;;;;;;;;;;;;21.58;62.64;102160.88;7292807;19;153075;-58
2022/09/19 05:46:23;;;;;;;;;;;;;;;21.63;62.33;102163.69;7287698;19;152597;-58
2022/09/19 05:49:11;;;;;;;;;;;;;;;21.67;62.35;102163.94;7287159;19;152390;-58
2022/09/19 05:51:38;;;;;;;;;;;;;;;21.73;61.99;102162.81;7288484;19;153326;-58
2022/09/19 05:54:05;;;;;;;;;;;;;;;21.77;62.17;102158.28;7288077;19;152581;-58
2022/09/19 05:56:32;;;;;;;;;;;;;;;21.81;61.43;102158.53;7289480;19;152753;-58
2022/09/19 05:59:11;;;;;;;;;;;;;;;21.85;61.73;102163.31;7285460;19;153486;-59
2022/09/19 06:01:39;;;;;;;;;;;;;;;21.88;61.50;102170.34;7288323;19;152033;-58
2022/09/19 06:04:07;;;;;;;;;;;;;;;21.93;61.31;102173.19;7287272;19;152047;-58
2022/09/19 06:06:35;;;;;;;;;;;;;;;21.95;61.20;102177.38;7292847;19;154719;-59
2022/09/19 06:09:05;;;;;;;;;;;;;;;21.98;61.06;102174.00;7288098;19;154532;-58
2022/09/19 06:11:32;;;;;;;;;;;;;;;22.01;60.70;102175.38;7287866;19;154331;-59
2022/09/19 06:14:15;;;;;;;;;;;;;;;22.03;60.80;102179.56;7284438;19;151924;-58
2022/09/19 06:16:42;;;;;;;;;;;;;;;22.05;60.69;102168.03;7286695;19;153554;-58
2022/09/19 06:19:09;;;;;;;;;;;;;;;22.07;60.67;102180.72;7285073;19;154029;-59
2022/09/19 06:21:36;;;;;;;;;;;;;;;22.09;60.35;102177.59;7288890;19;153147;-58
2022/09/19 06:24:06;;;;;;;;;;;;;;;22.11;60.45;102178.16;7287477;19;152430;-59
2022/09/19 06:26:34;;;;;;;;;;;;;;;22.11;60.33;102179.00;7287006;19;153506;-58
2022/09/19 06:29:10;;;;;;;;;;;;;;;22.14;60.13;102180.38;7294188;19;152167;-58
2022/09/19 06:31:37;;;;;;;;;;;;;;;22.15;60.21;102182.06;7286068;19;153367;-58
2022/09/19 06:34:04;;;;;;;;;;;;;;;22.16;60.00;102186.56;7283633;19;152011;-58
2022/09/19 06:36:31;;;;;;;;;;;;;;;22.17;60.35;102186.28;7287351;19;153753;-59
2022/09/19 06:39:06;;;;;;;;;;;;;;;22.17;59.62;102183.44;7286464;19;153508;-58
2022/09/19 06:41:34;;;;;;;;;;;;;;;22.18;59.44;102192.75;7287055;19;152198;-58
2022/09/19 06:44:02;;;;;;;;;;;;;;;22.20;59.53;102198.94;7283658;19;153149;-58
2022/09/19 06:46:30;;;;;;;;;;;;;;;22.20;59.42;102192.47;7285382;19;153429;-58
2022/09/19 06:49:09;;;;;;;;;;;;;;;22.21;59.37;102194.16;7292849;19;152253;-59
2022/09/19 06:51:36;;;;;;;;;;;;;;;22.21;59.46;102197.81;7284908;19;152807;-58
2022/09/19 06:54:03;;;;;;;;;;;;;;;22.21;59.64;102203.44;7283599;19;152366;-58
2022/09/19 06:56:30;;;;;;;;;;;;;;;22.21;59.51;102200.63;7286017;19;154080;-59
2022/09/19 06:59:02;;;;;;;;;;;;;;;22.22;59.45;102202.28;7284558;19;153228;-58
2022/09/19 07:01:32;;;;;;;;;;;;;;;22.23;59.18;102212.44;7285678;19;151865;-59
2022/09/19 07:03:59;;;;;;;;;;;;;;;22.23;59.79;102206.81;7285260;19;153221;-59
2022/09/19 07:06:26;;;;;;;;;;;;;;;22.23;59.19;102215.25;7285581;19;152871;-59
2022/09/19 07:08:57;;;;;;;;;;;;;;;22.22;59.13;102212.72;7284091;19;152421;-59
2022/09/19 07:11:27;;;;;;;;;;;;;;;22.21;59.08;102213.88;7292796;19;152157;-59
2022/09/19 07:13:55;;;;;;;;;;;;;;;22.20;59.23;102227.09;7283699;19;152514;-59
2022/09/19 07:16:22;;;;;;;;;;;;;;;22.20;59.00;102218.66;7284415;19;152576;-59
2022/09/19 07:18:49;;;;;;;;;;;;;;;22.21;59.37;102213.88;7284375;19;154826;-60
2022/09/19 07:21:17;;;;;;;;;;;;;;;22.21;59.00;102213.88;7286717;19;151906;-59
2022/09/19 07:23:47;;;;;;;;;;;;;;;22.20;58.93;102218.66;7286652;19;152763;-59
2022/09/19 07:26:15;;;;;;;;;;;;;;;22.21;59.37;102214.72;7284781;19;153468;-59
2022/09/19 07:28:42;;;;;;;;;;;;;;;22.21;58.98;102208.22;7283666;19;151573;-59
2022/09/19 07:31:09;;;;;;;;;;;;;;;22.19;58.73;102208.50;7283977;19;152019;-58
2022/09/19 07:33:36;;;;;;;;;;;;;;;22.19;59.15;102219.78;7289739;19;153081;-59
2022/09/19 07:36:04;;;;;;;;;;;;;;;22.19;59.22;102222.59;7284822;19;152809;-59
2022/09/19 07:38:35;;;;;;;;;;;;;;;22.18;58.81;102216.13;7283824;19;153093;-58
2022/09/19 07:41:02;;;;;;;;;;;;;;;22.18;58.79;102220.91;7284947;19;151914;-59
2022/09/19 07:43:30;;;;;;;;;;;;;;;22.17;59.16;102220.06;7282311;19;153953;-60
2022/09/19 07:45:57;;;;;;;;;;;;;;;22.17;59.05;102225.69;7281318;19;152594;-58
2022/09/19 07:48:24;;;;;;;;;;;;;;;22.18;59.32;102220.91;7283473;19;152268;-58
2022/09/19 07:50:51;;;;;;;;;;;;;;;22.18;58.84;102226.53;7284023;19;153327;-58
2022/09/19 07:53:23;;;;;;;;;;;;;;;22.19;59.16;102228.22;7280786;19;153611;-58
2022/09/19 07:55:54;;;;;;;;;;;;;;;22.18;59.00;102223.72;7292866;19;153258;-58
2022/09/19 07:58:22;;;;;;;;;;;;;;;22.17;58.78;102234.13;7283746;19;156504;-58
2022/09/19 08:00:50;;;;;;;;;;;;;;;22.18;58.94;102240.59;7282946;19;152172;-58
2022/09/19 08:03:18;;;;;;;;;;;;;;;22.18;58.78;102240.59;7282799;19;152075;-58
2022/09/19 08:05:49;;;;;;;;;;;;;;;22.18;58.92;102240.59;7284011;19;153313;-58
2022/09/19 08:08:17;;;;;;;;;;;;;;;22.15;58.87;102244.84;7283804;19;151885;-58
2022/09/19 08:10:44;;;;;;;;;;;;;;;22.16;59.05;102248.50;7283767;19;152439;-59
2022/09/19 08:13:14;;;;;;;;;;;;;;;22.18;58.84;102254.69;7281919;19;154466;-57
2022/09/19 08:15:42;;;;;;;;;;;;;;;22.14;58.93;102253.56;7281972;19;152137;-57
2022/09/19 08:18:14;;;;;;;;;;;;;;;22.16;58.03;102252.19;7288800;19;152667;-57
2022/09/19 08:20:41;;;;;;;;;;;;;;;22.13;56.92;102263.13;7284880;19;152115;-57
2022/09/19 08:23:10;;;;;;;;;;;;;;;22.10;56.56;102263.72;7283633;19;152614;-57
2022/09/19 08:25:38;;;;;;;;;;;;;;;22.09;56.15;102268.50;7283290;19;153643;-57
2022/09/19 08:28:07;;;;;;;;;;;;;;;22.07;56.08;102272.75;7219118;19;160030;-57
2022/09/19 08:30:37;;;;;;;;;;;;;;;22.04;55.67;102273.31;7274650;19;153259;-57
2022/09/19 08:33:06;;;;;;;;;;;;;;;22.04;55.71;102276.13;7261834;19;153219;-57
2022/09/19 08:35:39;;;;;;;;;;;;;;;22.00;55.50;102278.66;7274511;19;152545;-57
2022/09/19 08:38:10;;;;;;;;;;;;;;;22.00;55.25;102275.00;7277871;19;153487;-57
2022/09/19 08:40:40;;;;;;;;;;;;;;;21.97;55.20;102281.22;7284629;19;152092;-57
2022/09/19 08:43:16;;;;;;;;;;;;;;;21.96;54.96;102279.53;7274707;19;154961;-56
2022/09/19 08:46:02;;;;;;;;;;;;;;;21.94;55.20;102276.19;7276895;19;154415;-56
2022/09/19 08:48:35;;;;;;;;;;;;;;;21.92;54.78;102278.38;7276991;19;152624;-57
2022/09/19 08:51:29;;;;;;;;;;;;;;;21.89;54.86;102279.81;7278919;19;152008;-57
2022/09/19 08:54:03;;;;;;;;;;;;;;;21.88;54.72;102277.28;7272738;19;152436;-57
2022/09/19 08:56:41;;;;;;;;;;;;;;;21.85;54.60;102289.13;7276221;19;153613;-57
2022/09/19 08:59:41;;;;;;;;;;;;;;;21.85;54.40;102289.13;7276111;19;154154;-57
2022/09/19 09:02:21;;;;;;;;;;;;;;;21.80;54.98;102295.59;7284582;19;154127;-57
2022/09/19 09:05:18;;;;;;;;;;;;;;;21.78;54.64;102294.19;7276449;19;153065;-57
2022/09/19 09:08:09;;;;;;;;;;;;;;;21.76;54.79;102293.63;7277425;19;154135;-56
2022/09/19 09:10:53;;;;;;;;;;;;;;;21.74;55.00;102291.94;7279469;19;152284;-56
2022/09/19 09:13:44;;;;;;;;;;;;;;;21.71;54.92;102295.31;7266181;19;152434;-57
2022/09/19 09:16:38;;;;;;;;;;;;;;;21.69;54.75;102307.97;7275967;19;152383;-57
2022/09/19 09:19:29;;;;;;;;;;;;;;;21.69;55.05;102296.72;7277741;19;152454;-57
2022/09/19 09:22:00;;;;;;;;;;;;;;;21.65;54.97;102299.25;7278022;19;153731;-57
2022/09/19 09:24:34;;;;;;;;;;;;;;;21.64;55.44;102291.94;7276468;19;153409;-57
2022/09/19 09:27:13;;;;;;;;;;;;;;;21.62;54.97;102293.38;7260745;19;153820;-57
2022/09/19 09:29:44;;;;;;;;;;;;;;;21.62;55.56;102302.63;7274917;19;152818;-56
2022/09/19 09:32:15;;;;;;;;;;;;;;;21.61;55.26;102288.88;7277489;19;152702;-57
2022/09/19 09:34:49;;;;;;;;;;;;;;;21.60;55.17;102295.59;7276098;19;153702;-57
2022/09/19 09:37:23;;;;;;;;;;;;;;;21.58;55.33;102290.25;7275265;19;153435;-57
2022/09/19 09:40:09;;;;;;;;;;;;;;;21.61;55.41;102289.72;7280163;19;153090;-57
2022/09/19 09:42:39;;;;;;;;;;;;;;;21.58;55.57;102290.25;7279402;19;152423;-57
2022/09/19 09:45:34;;;;;;;;;;;;;;;21.58;55.46;102297.84;7280532;19;153884;-57
2022/09/19 09:48:11;;;;;;;;;;;;;;;21.56;55.60;102292.53;7279363;19;152343;-57
2022/09/19 09:50:44;;;;;;;;;;;;;;;21.55;55.67;102287.19;7285402;19;153638;-57
2022/09/19 09:53:17;;;;;;;;;;;;;;;21.54;55.80;102293.91;7280881;19;152308;-57
2022/09/19 09:58:42;;;;;;;;;;;;;;;21.53;55.69;102292.25;7279827;19;153443;-57
2022/09/19 10:04:15;;;;;;;;;;;;;;;21.49;55.96;102289.13;7278819;19;153702;-58
2022/09/19 10:07:13;;;;;;;;;;;;;;;21.48;55.77;102292.25;7280183;19;152660;-58
2022/09/19 10:10:21;;;;;;;;;;;;;;;21.46;55.88;102298.16;7278733;19;152962;-57
2022/09/19 10:13:08;;;;;;;;;;;;;;;21.45;55.53;102301.22;7280596;19;153384;-57
2022/09/19 10:16:06;;;;;;;;;;;;;;;21.44;55.51;102293.94;7252705;19;156376;-58
2022/09/19 10:18:41;;;;;;;;;;;;;;;21.44;55.83;102291.13;7278573;19;152932;-58
2022/09/19 10:21:14;;;;;;;;;;;;;;;21.42;55.57;102302.66;7284021;19;153315;-57
2022/09/19 10:23:53;;;;;;;;;;;;;;;21.42;55.50;102299.00;7285460;19;152955;-58
2022/09/19 10:26:27;;;;;;;;;;;;;;;21.40;55.66;102299.28;7286391;19;152174;-57
2022/09/19 10:29:02;;;;;;;;;;;;;;;21.39;55.43;102300.41;7283135;19;152858;-57
2022/09/19 10:31:40;;;;;;;;;;;;;;;21.39;55.96;102305.19;7280924;19;152827;-57
2022/09/19 10:34:26;;;;;;;;;;;;;;;21.37;56.09;102296.19;7284344;19;153441;-57
2022/09/19 10:37:15;;;;;;;;;;;;;;;21.37;55.78;102299.00;7276971;19;153302;-57
2022/09/19 10:39:48;;;;;;;;;;;;;;;21.36;55.77;102303.78;7293387;19;151811;-57
2022/09/19 10:42:36;;;;;;;;;;;;;;;21.35;55.94;102296.44;7285363;19;152800;-57
2022/09/19 10:45:17;;;;;;;;;;;;;;;21.36;55.63;102298.16;7285339;19;152810;-57
2022/09/19 10:47:47;;;;;;;;;;;;;;;21.35;55.75;102296.44;7283863;19;153455;-57
2022/09/19 10:50:20;;;;;;;;;;;;;;;21.34;55.68;102294.78;7256936;19;154356;-57
2022/09/19 10:53:05;;;;;;;;;;;;;;;21.35;55.78;102298.44;7278859;19;152756;-57
2022/09/19 10:55:36;;;;;;;;;;;;;;;21.34;55.94;102300.41;7283784;19;152106;-57
2022/09/19 10:58:23;;;;;;;;;;;;;;;21.33;55.95;102301.53;7282134;19;153409;-57
2022/09/19 11:01:19;;;;;;;;;;;;;;;21.31;55.74;102295.34;7292661;19;151824;-58
2022/09/19 11:07:16;;;;;;;;;;;;;;;21.33;55.79;102300.69;7272241;19;152166;-57
2022/09/19 11:09:45;;;;;;;;;;;;;;;21.32;55.55;102297.03;7286440;19;155573;-57
2022/09/19 11:12:18;;;;;;;;;;;;;;;21.34;55.83;102291.13;7284322;19;153593;-57
2022/09/19 11:14:48;;;;;;;;;;;;;;;21.35;55.84;102288.03;7281536;19;154330;-56
2022/09/19 11:17:29;;;;;;;;;;;;;;;21.35;55.99;102295.63;7283630;19;152751;-58
2022/09/19 11:20:05;;;;;;;;;;;;;;;21.37;55.71;102293.38;7282145;19;154025;-57
2022/09/19 11:22:34;;;;;;;;;;;;;;;21.35;56.00;102290.84;7284968;19;152323;-57
2022/09/19 11:25:11;;;;;;;;;;;;;;;21.36;56.05;102292.53;7290727;19;152112;-56
2022/09/19 11:27:56;;;;;;;;;;;;;;;21.36;55.97;102297.31;7286655;19;152003;-56
2022/09/19 11:30:25;;;;;;;;;;;;;;;21.35;55.71;102290.03;7284956;19;153235;-58
2022/09/19 11:33:09;;;;;;;;;;;;;;;21.37;55.73;102297.03;7283092;19;153799;-58
2022/09/19 11:35:36;;;;;;;;;;;;;;;21.36;55.71;102291.69;7283333;19;152656;-56
2022/09/19 11:38:20;;;;;;;;;;;;;;;21.36;55.81;102297.31;7279982;19;152464;-57
2022/09/19 11:41:17;;;;;;;;;;;;;;;21.35;55.50;102299.25;7283139;19;152362;-56
2022/09/19 11:43:45;;;;;;;;;;;;;;;21.34;55.63;102294.78;7282008;19;153303;-58
2022/09/19 11:46:22;;;;;;;;;;;;;;;21.34;55.62;102297.59;7283733;19;153195;-58
2022/09/19 11:48:54;;;;;;;;;;;;;;;21.33;51.48;102295.06;7255946;19;153894;-58
2022/09/19 11:51:31;;;;;;;;;;;;;;;21.35;49.21;102302.06;7281512;19;153973;-58
2022/09/19 11:54:02;;;;;;;;;;;;;;;21.35;48.12;102290.84;7279012;19;154261;-58
2022/09/19 11:56:36;;;;;;;;;;;;;;;21.30;45.91;102288.03;7280412;19;152150;-58
2022/09/19 11:59:07;;;;;;;;;;;;;;;21.31;46.30;102289.72;7278799;19;152957;-58
2022/09/19 12:01:44;;;;;;;;;;;;;;;21.30;49.23;102286.06;7279161;19;154518;-59
2022/09/19 12:04:20;;;;;;;;;;;;;;;21.29;50.70;102277.91;7278199;19;153553;-58
2022/09/19 12:06:50;;;;;;;;;;;;;;;21.27;51.50;102280.16;7273591;19;152945;-58
2022/09/19 12:09:25;;;;;;;;;;;;;;;21.27;52.44;102277.34;7278500;19;152813;-58
2022/09/19 12:11:58;;;;;;;;;;;;;;;21.27;52.54;102278.19;7287668;19;152135;-57
2022/09/19 12:14:28;;;;;;;;;;;;;;;21.25;52.63;102265.56;7275586;19;153519;-58
2022/09/19 12:16:58;;;;;;;;;;;;;;;21.24;53.35;102267.53;7283634;19;152349;-58
2022/09/19 12:19:40;;;;;;;;;;;;;;;21.23;53.08;102265.81;7276692;19;152197;-58
2022/09/19 12:22:15;;;;;;;;;;;;;;;21.22;53.67;102263.28;7284265;19;153268;-58
2022/09/19 12:24:53;;;;;;;;;;;;;;;21.23;53.87;102259.34;7280221;19;152034;-58
2022/09/19 12:27:49;;;;;;;;;;;;;;;21.23;53.46;102267.78;7273897;19;156119;-58
2022/09/19 12:30:23;;;;;;;;;;;;;;;21.24;53.97;102263.88;7269032;19;156709;-58
2022/09/19 12:33:05;;;;;;;;;;;;;;;21.26;53.67;102262.44;7277805;19;152655;-58
2022/09/19 12:35:44;;;;;;;;;;;;;;;21.24;53.81;102261.91;7288622;19;155090;-58
2022/09/19 12:38:24;;;;;;;;;;;;;;;21.25;53.65;102259.94;7271603;19;152673;-57
2022/09/19 12:41:30;;;;;;;;;;;;;;;21.25;53.54;102251.50;7276927;19;152537;-57
2022/09/19 12:58:43;;;;;;;;;;;;;;;21.26;53.89;102253.16;7264952;19;155913;-56
2022/09/19 13:01:48;;;;;;;;;;;;;;;21.27;53.77;102257.66;7255374;19;152016;-57
2022/09/19 13:04:34;;;;;;;;;;;;;;;21.25;54.04;102245.88;7280262;19;153253;-57
2022/09/19 13:07:11;;;;;;;;;;;;;;;21.27;54.04;102255.69;7284519;19;152491;-56
2022/09/19 13:09:54;;;;;;;;;;;;;;;21.26;53.93;102258.78;7282060;19;153184;-56
2022/09/19 13:13:04;;;;;;;;;;;;;;;21.28;53.71;102262.16;7278392;19;152779;-57
2022/09/19 13:16:19;;;;;;;;;;;;;;;21.28;53.61;102254.59;7278503;19;151850;-57
2022/09/19 13:29:11;;;;;;;;;;;;;;;21.29;53.31;102244.19;7266056;19;157204;-58
2022/09/19 13:31:56;;;;;;;;;;;;;;;21.28;53.58;102234.06;7281640;19;152183;-57
2022/09/19 13:34:39;;;;;;;;;;;;;;;21.26;53.28;102228.72;7275282;19;154789;-57
2022/09/19 13:37:09;;;;;;;;;;;;;;;21.27;53.38;102233.22;7281551;19;153452;-57
2022/09/19 13:39:41;;;;;;;;;;;;;;;21.28;53.37;102237.72;7281434;19;152781;-57
2022/09/19 13:42:11;;;;;;;;;;;;;;;21.30;53.60;102232.63;7283722;19;153018;-57